TimeEDT,TemperatureF,Dew PointF,Humidity,Sea Level PressureIn,VisibilityMPH,Wind Direction,Wind SpeedMPH,Gust SpeedMPH,PrecipitationIn,Events,Conditions,WindDirDegrees,DateUTC
12:43 AM,62.6,62.6,100,30.06,7.0,Calm,Calm,-,N/A,,Partly Cloudy,0,2013-07-30 04:43:00
12:51 AM,62.1,61.0,96,30.05,8.0,Calm,Calm,-,N/A,,Scattered Clouds,0,2013-07-30 04:51:00
1:00 AM,60.8,60.8,100,30.05,9.0,Calm,Calm,-,N/A,,Mostly Cloudy,0,2013-07-30 05:00:00
1:34 AM,60.8,60.8,100,30.06,1.8,Calm,Calm,-,N/A,,Overcast,0,2013-07-30 05:34:00
1:37 AM,60.8,60.8,100,30.06,0.8,Calm,Calm,-,N/A,,Overcast,0,2013-07-30 05:37:00
1:43 AM,60.8,60.8,100,30.06,0.2,Calm,Calm,-,N/A,Fog,Fog,0,2013-07-30 05:43:00
1:51 AM,61.0,61.0,100,30.06,0.2,Calm,Calm,-,N/A,Fog,Fog,0,2013-07-30 05:51:00
2:00 AM,60.8,60.8,100,30.06,1.0,Calm,Calm,-,N/A,,Overcast,0,2013-07-30 06:00:00
2:05 AM,60.8,60.8,100,30.05,3.0,Calm,Calm,-,N/A,,Overcast,0,2013-07-30 06:05:00
2:18 AM,60.8,60.8,100,30.06,1.8,Calm,Calm,-,N/A,,Overcast,0,2013-07-30 06:18:00
2:22 AM,60.8,60.8,100,30.06,0.8,Calm,Calm,-,N/A,,Overcast,0,2013-07-30 06:22:00
2:38 AM,60.8,60.8,100,30.05,1.5,Calm,Calm,-,N/A,,Overcast,0,2013-07-30 06:38:00
2:40 AM,60.8,60.8,100,30.05,3.0,Calm,Calm,-,N/A,,Overcast,0,2013-07-30 06:40:00
2:51 AM,60.1,60.1,100,30.05,2.5,Calm,Calm,-,N/A,,Overcast,0,2013-07-30 06:51:00
2:53 AM,60.8,60.8,100,30.05,1.0,Calm,Calm,-,N/A,,Overcast,0,2013-07-30 06:53:00
2:58 AM,60.8,60.8,100,30.05,0.2,Calm,Calm,-,N/A,Fog,Fog,0,2013-07-30 06:58:00
3:37 AM,59.0,59.0,100,30.05,0.5,Calm,Calm,-,N/A,Fog,Fog,0,2013-07-30 07:37:00
3:51 AM,59.0,59.0,100,30.05,0.5,Calm,Calm,-,N/A,Fog,Fog,0,2013-07-30 07:51:00
3:55 AM,59.0,59.0,100,30.05,1.8,Calm,Calm,-,N/A,,Mostly Cloudy,0,2013-07-30 07:55:00
3:58 AM,59.0,59.0,100,30.05,3.0,Calm,Calm,-,N/A,,Mostly Cloudy,0,2013-07-30 07:58:00
4:05 AM,57.2,57.2,100,30.06,5.0,Calm,Calm,-,N/A,,Scattered Clouds,0,2013-07-30 08:05:00
4:48 AM,57.2,57.2,100,30.06,1.8,Calm,Calm,-,N/A,,Clear,0,2013-07-30 08:48:00
4:49 AM,57.0,57.0,100,30.06,1.5,Calm,Calm,-,N/A,,Clear,0,2013-07-30 08:49:00
4:57 AM,57.2,57.2,100,30.06,3.0,NW,3.5,-,N/A,,Clear,310,2013-07-30 08:57:00
5:51 AM,55.0,55.0,100,30.07,8.0,Calm,Calm,-,N/A,,Clear,0,2013-07-30 09:51:00
6:51 AM,59.0,59.0,100,30.08,10.0,Calm,Calm,-,N/A,,Clear,0,2013-07-30 10:51:00
7:51 AM,64.9,59.0,81,30.08,10.0,Calm,Calm,-,N/A,,Clear,0,2013-07-30 11:51:00
8:51 AM,69.1,59.0,70,30.09,10.0,NNW,6.9,-,N/A,,Clear,330,2013-07-30 12:51:00
9:51 AM,73.0,57.0,57,30.09,10.0,NW,9.2,-,N/A,,Clear,310,2013-07-30 13:51:00
10:51 AM,75.0,57.0,53,30.10,10.0,NNW,6.9,-,N/A,,Clear,330,2013-07-30 14:51:00
11:51 AM,75.9,54.0,46,30.09,10.0,WNW,9.2,-,N/A,,Partly Cloudy,300,2013-07-30 15:51:00
12:51 PM,78.1,53.1,42,30.08,10.0,West,9.2,18.4,N/A,,Clear,280,2013-07-30 16:51:00
1:51 PM,79.0,52.0,39,30.07,10.0,NW,13.8,18.4,N/A,,Clear,310,2013-07-30 17:51:00
2:51 PM,79.0,53.1,40,30.06,10.0,NW,16.1,19.6,N/A,,Clear,310,2013-07-30 18:51:00
3:51 PM,79.0,52.0,39,30.05,10.0,NNW,11.5,16.1,N/A,,Clear,330,2013-07-30 19:51:00
4:51 PM,79.0,52.0,39,30.04,10.0,NNW,10.4,-,N/A,,Clear,340,2013-07-30 20:51:00
5:51 PM,78.1,51.1,39,30.04,10.0,WNW,8.1,-,N/A,,Clear,300,2013-07-30 21:51:00
6:51 PM,77.0,53.1,43,30.06,10.0,NW,4.6,-,N/A,,Partly Cloudy,320,2013-07-30 22:51:00
7:51 PM,73.0,55.0,53,30.07,10.0,Calm,Calm,-,N/A,,Mostly Cloudy,0,2013-07-30 23:51:00
8:51 PM,64.9,57.9,78,30.09,10.0,Calm,Calm,-,N/A,,Clear,0,2013-07-31 00:51:00
9:51 PM,62.1,57.9,86,30.10,10.0,Calm,Calm,-,N/A,,Clear,0,2013-07-31 01:51:00
10:51 PM,61.0,59.0,93,30.10,10.0,Calm,Calm,-,N/A,,Mostly Cloudy,0,2013-07-31 02:51:00
11:51 PM,62.1,60.1,93,30.09,10.0,Calm,Calm,-,N/A,,Overcast,0,2013-07-31 03:51:00